Estación de Combarbala

Ultimos registro cada 15 minutos 95
Estación Fecha / Hora Temperatura Humedad Lluvia Velocidad Dirección Radiación Presion
95 Combarbala 05-09-2026 23:30 13,1 35 0 0 195 0,6 908
94 Combarbala 05-09-2026 23:15 13,8 31,3 0 0 195 0,6 908
93 Combarbala 05-09-2026 23:00 13,5 32,1 0 0 195 0,6 908,1
92 Combarbala 05-09-2026 22:45 13,4 37,2 0 0 195 0,6 908,2
91 Combarbala 05-09-2026 22:30 13,5 34,7 0 0 195 0,6 908,1
90 Combarbala 05-09-2026 22:15 13,4 36,1 0 0 195 0,6 908,4
89 Combarbala 05-09-2026 22:00 14,1 32,9 0 0 195 0,6 908,4
88 Combarbala 05-09-2026 21:45 14,3 33,6 0 0 195 0,6 908,4
87 Combarbala 05-09-2026 21:30 14,1 36,9 0 0 195 0,6 908,5
86 Combarbala 05-09-2026 21:15 14 38,7 0 0 195 0,6 908,4
85 Combarbala 05-09-2026 21:00 14 42,3 0 0 195 0,6 908,5
84 Combarbala 05-09-2026 20:45 14,4 41,4 0 0 195 0,6 908,4
83 Combarbala 05-09-2026 20:30 14,7 42,9 0 0 195 0,6 908,4
82 Combarbala 05-09-2026 20:15 14,2 45,5 0 0 195 0,6 908,5
81 Combarbala 05-09-2026 20:00 15,2 41,1 0 0 195 0,6 908,5
80 Combarbala 05-09-2026 19:45 15 44,9 0 0 195 0,6 908,4
79 Combarbala 05-09-2026 19:30 15,6 43,4 0 0 197 0,6 908,4
78 Combarbala 05-09-2026 19:15 15,7 43,1 0 0,5 199 0,6 908,3
77 Combarbala 05-09-2026 19:00 16,4 39 0 0 202 0,6 908,1
76 Combarbala 05-09-2026 18:45 17,6 38,2 0 1,5 220 0,6 908
75 Combarbala 05-09-2026 18:30 18,2 37,9 0 2 222 4,4 907,9
74 Combarbala 05-09-2026 18:15 19 36,7 0 2 220 11,9 908
73 Combarbala 05-09-2026 18:00 20,3 33,9 0 2 222 68,1 907,3
72 Combarbala 05-09-2026 17:45 21,3 30,6 0 2,5 220 134,4 907,2
71 Combarbala 05-09-2026 17:30 22,3 30,1 0 2 225 173,1 907
70 Combarbala 05-09-2026 17:15 23,1 25,2 0 1,5 223 219,4 907
69 Combarbala 05-09-2026 17:00 23,4 24,2 0 1,5 227 269,4 907
68 Combarbala 05-09-2026 16:45 23,9 22,4 0 1,5 220 316,9 907,4
67 Combarbala 05-09-2026 16:30 24 21 0 2 226 369,4 907,3
66 Combarbala 05-09-2026 16:15 24,7 22,1 0 1,5 240 419,4 907,3
65 Combarbala 05-09-2026 16:00 24,6 20,2 0 0,5 293 390,6 907,1
64 Combarbala 05-09-2026 15:45 25,6 15,7 0 0,5 329 501,9 907,1
63 Combarbala 05-09-2026 15:30 25,7 14,2 0 0,5 317 593,1 907,1
62 Combarbala 05-09-2026 15:15 25,6 15,6 0 0,5 274 563,1 907,2
61 Combarbala 05-09-2026 15:00 26,5 15,4 0 0,5 279 674,4 907,2
60 Combarbala 05-09-2026 14:45 24,6 16,4 0 1,5 275 693,1 907,4
59 Combarbala 05-09-2026 14:30 25,8 16 0 1 277 714,4 907,5
58 Combarbala 05-09-2026 14:15 25,5 16,2 0 1 286 710,6 907,5
57 Combarbala 05-09-2026 14:00 25,1 17,3 0 0,5 284 723,1 907,7
56 Combarbala 05-09-2026 13:45 24,9 17,3 0 1 284 741,9 907,7
55 Combarbala 05-09-2026 13:30 26,1 23,8 0 0,5 291 756,9 907,8
54 Combarbala 05-09-2026 13:15 25,3 16,9 0 0,5 327 768,1 907,9
53 Combarbala 05-09-2026 13:00 25,6 20,4 0 0,5 340 775,6 908,1
52 Combarbala 05-09-2026 12:45 24,8 22 0 0,5 329 778,1 908,1
51 Combarbala 05-09-2026 12:30 24,4 21,8 0 0,5 329 643,1 908,1
50 Combarbala 05-09-2026 12:15 24,4 19,1 0 0,5 306 769,4 908,3
49 Combarbala 05-09-2026 12:00 23,9 19,4 0 0,5 303 764,4 908,3
48 Combarbala 05-09-2026 11:45 23,8 22 0 0,5 333 749,4 908,5
47 Combarbala 05-09-2026 11:30 23,1 19,5 0 0,5 348 730,6 908,6
46 Combarbala 05-09-2026 11:15 23 23,1 0 0 350 711,9 908,6
45 Combarbala 05-09-2026 11:00 23,3 27 0 0 350 686,9 908,6
44 Combarbala 05-09-2026 10:45 21,9 23,6 0 0 355 658,1 908,8
43 Combarbala 05-09-2026 10:30 21,9 28,3 0 0 129 626,9 908,7
42 Combarbala 05-09-2026 10:15 21,7 29,8 0 0 128 593,1 908,9
41 Combarbala 05-09-2026 10:00 20,8 28,9 0 0 128 555,6 908,9
40 Combarbala 05-09-2026 09:45 19,5 32,7 0 0 128 514,4 909,1
39 Combarbala 05-09-2026 09:30 19,6 33 0 0 128 470,6 908,9
38 Combarbala 05-09-2026 09:15 18,8 31,2 0 0 128 425,6 909,1
37 Combarbala 05-09-2026 09:00 17,9 30,7 0 0 128 376,9 909,1
36 Combarbala 05-09-2026 08:45 17,8 31,6 0 0 128 329,4 909,1
35 Combarbala 05-09-2026 08:30 17,4 34,5 0 0 128 278,1 909
34 Combarbala 05-09-2026 08:15 14,4 38,3 0 0 128 226,9 909
33 Combarbala 05-09-2026 08:00 13,4 48,3 0 0 128 175,6 909,1
32 Combarbala 05-09-2026 07:45 12,6 44,6 0 0 128 129,4 908,9
31 Combarbala 05-09-2026 07:30 9,7 43,2 0 0 128 13,1 909,2
30 Combarbala 05-09-2026 07:15 9,5 42,4 0 0 128 8,1 909,2
29 Combarbala 05-09-2026 07:00 9,1 45,2 0 0 128 4,4 909
28 Combarbala 05-09-2026 06:45 8,5 49,8 0 0 128 0,6 909
27 Combarbala 05-09-2026 06:30 9,2 46,2 0 0 128 0,6 909,1
26 Combarbala 05-09-2026 06:15 8,8 53,9 0 0 128 0,6 909
25 Combarbala 05-09-2026 06:00 9,6 50,9 0 0 128 0,6 908,9
24 Combarbala 05-09-2026 05:45 10 49,9 0 0,5 128 0,6 908,9
23 Combarbala 05-09-2026 05:30 9,7 50,5 0 0 128 0,6 908,9
22 Combarbala 05-09-2026 05:15 10 49,9 0 0 128 0,6 908,8
21 Combarbala 05-09-2026 05:00 9,8 50,4 0 0 128 0,6 908,9
20 Combarbala 05-09-2026 04:45 10,1 52,2 0 0 128 0,6 908,9
19 Combarbala 05-09-2026 04:30 10,4 52,9 0 0 128 0,6 908,9
18 Combarbala 05-09-2026 04:15 10,1 54,1 0 0 128 0,6 909,1
17 Combarbala 05-09-2026 04:00 10,5 52,8 0 0 128 0,6 909,2
16 Combarbala 05-09-2026 03:45 10,2 54,7 0 0 128 0,6 909,2
15 Combarbala 05-09-2026 03:30 10,5 53,4 0 0 128 0,6 909,3
14 Combarbala 05-09-2026 03:15 10,5 53,5 0 0 128 0,6 909,4
13 Combarbala 05-09-2026 03:00 10,8 54,4 0 0 128 0,6 909,6
12 Combarbala 05-09-2026 02:45 10,7 56,8 0 0 128 0,6 909,8
11 Combarbala 05-09-2026 02:30 10,9 57,1 0 0 128 0,6 910
10 Combarbala 05-09-2026 02:15 10,5 61,2 0 0 128 0,6 910
9 Combarbala 05-09-2026 02:00 10,9 61,2 0 0 128 0,6 910,1
8 Combarbala 05-09-2026 01:45 10,2 65 0 0 128 0,6 910,2
7 Combarbala 05-09-2026 01:30 10,9 62,4 0 0 128 0,6 910,4
6 Combarbala 05-09-2026 01:15 10,7 65,8 0 0 128 0,6 910,5
5 Combarbala 05-09-2026 01:00 11,1 64 0 0 128 0,6 910,7
4 Combarbala 05-09-2026 00:45 10,9 66,7 0 0 128 0,6 910,6
3 Combarbala 05-09-2026 00:30 10,5 69,8 0 0,5 128 0,6 910,7
2 Combarbala 05-09-2026 00:15 10,9 68 0 0 128 0,6 910,8
1 Combarbala 05-09-2026 00:00 10,5 69,9 0 0 128 0,6 910,9